sensor_id;sensor_type;location;lat;lon;timestamp;temperature;humidity
35043;DHT22;21230;51.170;17.024;2022-11-15T00:02:20;4.60;99.90
35043;DHT22;21230;51.170;17.024;2022-11-15T00:04:46;4.50;99.90
35043;DHT22;21230;51.170;17.024;2022-11-15T00:07:13;4.60;99.90
35043;DHT22;21230;51.170;17.024;2022-11-15T00:09:38;4.50;99.90
35043;DHT22;21230;51.170;17.024;2022-11-15T00:12:04;4.60;99.90
35043;DHT22;21230;51.170;17.024;2022-11-15T00:14:30;4.50;99.90
35043;DHT22;21230;51.170;17.024;2022-11-15T00:17:01;4.60;99.90
35043;DHT22;21230;51.170;17.024;2022-11-15T00:19:26;4.60;99.90
35043;DHT22;21230;51.170;17.024;2022-11-15T00:21:52;4.50;99.90
35043;DHT22;21230;51.170;17.024;2022-11-15T00:24:18;4.50;99.90
35043;DHT22;21230;51.170;17.024;2022-11-15T00:26:45;4.50;99.90
35043;DHT22;21230;51.170;17.024;2022-11-15T00:29:11;4.50;99.90
35043;DHT22;21230;51.170;17.024;2022-11-15T00:31:36;4.40;99.90
35043;DHT22;21230;51.170;17.024;2022-11-15T00:34:02;4.40;99.90
35043;DHT22;21230;51.170;17.024;2022-11-15T00:36:28;4.40;99.90
35043;DHT22;21230;51.170;17.024;2022-11-15T00:38:54;4.30;99.90
35043;DHT22;21230;51.170;17.024;2022-11-15T00:41:19;4.30;99.90
35043;DHT22;21230;51.170;17.024;2022-11-15T00:43:54;4.30;99.90
35043;DHT22;21230;51.170;17.024;2022-11-15T00:46:26;4.30;99.90
35043;DHT22;21230;51.170;17.024;2022-11-15T00:48:52;4.30;99.90
35043;DHT22;21230;51.170;17.024;2022-11-15T00:51:17;4.30;99.90
35043;DHT22;21230;51.170;17.024;2022-11-15T00:53:43;4.20;99.90
35043;DHT22;21230;51.170;17.024;2022-11-15T00:56:09;4.20;99.90
35043;DHT22;21230;51.170;17.024;2022-11-15T00:58:34;4.10;99.90
35043;DHT22;21230;51.170;17.024;2022-11-15T01:01:09;4.10;99.90
35043;DHT22;21230;51.170;17.024;2022-11-15T01:03:38;4.10;99.90
35043;DHT22;21230;51.170;17.024;2022-11-15T01:06:04;4.10;99.90
35043;DHT22;21230;51.170;17.024;2022-11-15T01:08:30;4.00;99.90
35043;DHT22;21230;51.170;17.024;2022-11-15T01:11:06;3.90;99.90
35043;DHT22;21230;51.170;17.024;2022-11-15T01:13:41;3.90;99.90
35043;DHT22;21230;51.170;17.024;2022-11-15T01:16:08;3.90;99.90
35043;DHT22;21230;51.170;17.024;2022-11-15T01:18:34;3.70;99.90
35043;DHT22;21230;51.170;17.024;2022-11-15T01:21:04;3.60;99.90
35043;DHT22;21230;51.170;17.024;2022-11-15T01:23:29;3.70;99.90
35043;DHT22;21230;51.170;17.024;2022-11-15T01:25:58;3.70;99.90
35043;DHT22;21230;51.170;17.024;2022-11-15T01:28:24;3.80;99.90
35043;DHT22;21230;51.170;17.024;2022-11-15T01:30:52;3.80;99.90
35043;DHT22;21230;51.170;17.024;2022-11-15T01:33:18;3.80;99.90
35043;DHT22;21230;51.170;17.024;2022-11-15T01:35:45;3.90;99.90
35043;DHT22;21230;51.170;17.024;2022-11-15T01:38:10;3.90;99.90
35043;DHT22;21230;51.170;17.024;2022-11-15T01:40:36;3.90;99.90
35043;DHT22;21230;51.170;17.024;2022-11-15T01:43:24;3.90;99.90
35043;DHT22;21230;51.170;17.024;2022-11-15T01:45:55;3.90;99.90
35043;DHT22;21230;51.170;17.024;2022-11-15T01:48:23;3.90;99.90
35043;DHT22;21230;51.170;17.024;2022-11-15T01:50:51;3.90;99.90
35043;DHT22;21230;51.170;17.024;2022-11-15T01:53:19;3.90;99.90
35043;DHT22;21230;51.170;17.024;2022-11-15T01:55:47;3.90;99.90
35043;DHT22;21230;51.170;17.024;2022-11-15T01:58:16;3.90;99.90
35043;DHT22;21230;51.170;17.024;2022-11-15T02:00:42;3.90;99.90
35043;DHT22;21230;51.170;17.024;2022-11-15T02:03:08;3.90;99.90
35043;DHT22;21230;51.170;17.024;2022-11-15T02:05:35;3.90;99.90
35043;DHT22;21230;51.170;17.024;2022-11-15T02:08:01;3.90;99.90
35043;DHT22;21230;51.170;17.024;2022-11-15T02:10:27;3.80;99.90
35043;DHT22;21230;51.170;17.024;2022-11-15T02:12:53;3.80;99.90
35043;DHT22;21230;51.170;17.024;2022-11-15T02:15:26;3.80;99.90
35043;DHT22;21230;51.170;17.024;2022-11-15T02:18:07;3.80;99.90
35043;DHT22;21230;51.170;17.024;2022-11-15T02:20:53;3.70;99.90
35043;DHT22;21230;51.170;17.024;2022-11-15T02:29:10;3.60;99.90
35043;DHT22;21230;51.170;17.024;2022-11-15T02:31:48;3.60;99.90
35043;DHT22;21230;51.170;17.024;2022-11-15T02:37:07;3.60;99.90
35043;DHT22;21230;51.170;17.024;2022-11-15T02:42:28;3.60;99.90
35043;DHT22;21230;51.170;17.024;2022-11-15T02:45:17;3.60;99.90
35043;DHT22;21230;51.170;17.024;2022-11-15T02:47:45;3.60;99.90
35043;DHT22;21230;51.170;17.024;2022-11-15T03:16:10;3.40;99.90
35043;DHT22;21230;51.170;17.024;2022-11-15T03:18:37;3.40;99.90
35043;DHT22;21230;51.170;17.024;2022-11-15T03:21:05;3.30;99.90
35043;DHT22;21230;51.170;17.024;2022-11-15T03:23:32;3.40;99.90
35043;DHT22;21230;51.170;17.024;2022-11-15T03:25:59;3.30;99.90
35043;DHT22;21230;51.170;17.024;2022-11-15T03:28:27;3.30;99.90
35043;DHT22;21230;51.170;17.024;2022-11-15T03:30:55;3.30;99.90
35043;DHT22;21230;51.170;17.024;2022-11-15T03:33:22;3.30;99.90
35043;DHT22;21230;51.170;17.024;2022-11-15T03:35:52;3.30;99.90
35043;DHT22;21230;51.170;17.024;2022-11-15T03:38:20;3.30;99.90
35043;DHT22;21230;51.170;17.024;2022-11-15T03:46:13;3.20;99.90
35043;DHT22;21230;51.170;17.024;2022-11-15T03:48:41;3.20;99.90
35043;DHT22;21230;51.170;17.024;2022-11-15T03:51:09;3.20;99.90
35043;DHT22;21230;51.170;17.024;2022-11-15T03:53:35;3.20;99.90
35043;DHT22;21230;51.170;17.024;2022-11-15T03:56:01;3.20;99.90
35043;DHT22;21230;51.170;17.024;2022-11-15T03:58:26;3.20;99.90
35043;DHT22;21230;51.170;17.024;2022-11-15T04:00:53;3.20;99.90
35043;DHT22;21230;51.170;17.024;2022-11-15T04:03:18;3.10;99.90
35043;DHT22;21230;51.170;17.024;2022-11-15T04:05:44;3.10;99.90
35043;DHT22;21230;51.170;17.024;2022-11-15T04:08:13;3.10;99.90
35043;DHT22;21230;51.170;17.024;2022-11-15T04:10:40;3.10;99.90
35043;DHT22;21230;51.170;17.024;2022-11-15T04:13:07;3.10;99.90
35043;DHT22;21230;51.170;17.024;2022-11-15T04:15:33;3.10;99.90
35043;DHT22;21230;51.170;17.024;2022-11-15T04:17:59;3.10;99.90
35043;DHT22;21230;51.170;17.024;2022-11-15T04:20:26;3.10;99.90
35043;DHT22;21230;51.170;17.024;2022-11-15T04:23:11;3.10;99.90
35043;DHT22;21230;51.170;17.024;2022-11-15T04:26:00;3.20;99.90
35043;DHT22;21230;51.170;17.024;2022-11-15T04:28:26;3.20;99.90
35043;DHT22;21230;51.170;17.024;2022-11-15T04:30:52;3.10;99.90
35043;DHT22;21230;51.170;17.024;2022-11-15T04:33:18;3.10;99.90
35043;DHT22;21230;51.170;17.024;2022-11-15T04:35:44;3.10;99.90
35043;DHT22;21230;51.170;17.024;2022-11-15T04:38:31;3.10;99.90
35043;DHT22;21230;51.170;17.024;2022-11-15T04:41:00;3.10;99.90
35043;DHT22;21230;51.170;17.024;2022-11-15T04:43:26;3.10;99.90
35043;DHT22;21230;51.170;17.024;2022-11-15T04:45:54;3.00;99.90
35043;DHT22;21230;51.170;17.024;2022-11-15T04:48:29;3.00;99.90
35043;DHT22;21230;51.170;17.024;2022-11-15T04:50:56;3.00;99.90
35043;DHT22;21230;51.170;17.024;2022-11-15T04:53:21;2.90;99.90
35043;DHT22;21230;51.170;17.024;2022-11-15T04:55:49;2.70;99.90
35043;DHT22;21230;51.170;17.024;2022-11-15T04:58:16;2.50;99.90
35043;DHT22;21230;51.170;17.024;2022-11-15T05:00:42;2.40;99.90
35043;DHT22;21230;51.170;17.024;2022-11-15T05:03:14;2.40;99.90
35043;DHT22;21230;51.170;17.024;2022-11-15T05:05:58;2.50;99.90
35043;DHT22;21230;51.170;17.024;2022-11-15T05:08:25;2.50;99.90
35043;DHT22;21230;51.170;17.024;2022-11-15T05:10:52;2.50;99.90
35043;DHT22;21230;51.170;17.024;2022-11-15T05:13:17;2.50;99.90
35043;DHT22;21230;51.170;17.024;2022-11-15T05:15:43;2.60;99.90
35043;DHT22;21230;51.170;17.024;2022-11-15T05:18:10;2.50;99.90
35043;DHT22;21230;51.170;17.024;2022-11-15T05:20:39;2.60;99.90
35043;DHT22;21230;51.170;17.024;2022-11-15T05:23:07;2.70;99.90
35043;DHT22;21230;51.170;17.024;2022-11-15T05:25:42;2.70;99.90
35043;DHT22;21230;51.170;17.024;2022-11-15T05:28:10;2.70;99.90
35043;DHT22;21230;51.170;17.024;2022-11-15T05:30:36;2.80;99.90
35043;DHT22;21230;51.170;17.024;2022-11-15T05:33:08;2.70;99.90
35043;DHT22;21230;51.170;17.024;2022-11-15T05:35:37;2.70;99.90
35043;DHT22;21230;51.170;17.024;2022-11-15T05:38:06;2.70;99.90
35043;DHT22;21230;51.170;17.024;2022-11-15T05:40:37;2.80;99.90
35043;DHT22;21230;51.170;17.024;2022-11-15T05:43:02;2.90;99.90
35043;DHT22;21230;51.170;17.024;2022-11-15T05:45:31;2.90;99.90
35043;DHT22;21230;51.170;17.024;2022-11-15T05:47:58;2.80;99.90
35043;DHT22;21230;51.170;17.024;2022-11-15T05:50:26;2.80;99.90
35043;DHT22;21230;51.170;17.024;2022-11-15T05:52:52;2.70;99.90
35043;DHT22;21230;51.170;17.024;2022-11-15T05:55:19;2.70;99.90
35043;DHT22;21230;51.170;17.024;2022-11-15T05:57:45;2.40;99.90
35043;DHT22;21230;51.170;17.024;2022-11-15T06:00:14;2.10;99.90
35043;DHT22;21230;51.170;17.024;2022-11-15T06:02:43;2.00;99.90
35043;DHT22;21230;51.170;17.024;2022-11-15T06:05:09;1.90;99.90
35043;DHT22;21230;51.170;17.024;2022-11-15T06:07:36;2.00;99.90
35043;DHT22;21230;51.170;17.024;2022-11-15T06:10:01;1.90;99.90
35043;DHT22;21230;51.170;17.024;2022-11-15T06:12:27;2.00;99.90
35043;DHT22;21230;51.170;17.024;2022-11-15T06:14:53;2.00;99.90
35043;DHT22;21230;51.170;17.024;2022-11-15T06:17:19;2.00;99.90
35043;DHT22;21230;51.170;17.024;2022-11-15T06:19:45;2.10;99.90
35043;DHT22;21230;51.170;17.024;2022-11-15T06:22:10;2.20;99.90
35043;DHT22;21230;51.170;17.024;2022-11-15T06:24:36;2.30;99.90
35043;DHT22;21230;51.170;17.024;2022-11-15T06:27:05;2.40;99.90
35043;DHT22;21230;51.170;17.024;2022-11-15T06:29:35;2.40;99.90
35043;DHT22;21230;51.170;17.024;2022-11-15T06:32:06;2.40;99.90
35043;DHT22;21230;51.170;17.024;2022-11-15T06:34:32;2.50;99.90
35043;DHT22;21230;51.170;17.024;2022-11-15T06:37:02;2.50;99.90
35043;DHT22;21230;51.170;17.024;2022-11-15T06:39:29;2.50;99.90
35043;DHT22;21230;51.170;17.024;2022-11-15T06:41:59;2.50;99.90
35043;DHT22;21230;51.170;17.024;2022-11-15T06:44:24;2.30;99.90
35043;DHT22;21230;51.170;17.024;2022-11-15T06:46:50;2.30;99.90
35043;DHT22;21230;51.170;17.024;2022-11-15T06:49:17;2.20;99.90
35043;DHT22;21230;51.170;17.024;2022-11-15T06:51:43;2.20;99.90
35043;DHT22;21230;51.170;17.024;2022-11-15T06:54:08;2.30;99.90
35043;DHT22;21230;51.170;17.024;2022-11-15T06:56:35;2.30;99.90
35043;DHT22;21230;51.170;17.024;2022-11-15T06:59:01;2.50;99.90
35043;DHT22;21230;51.170;17.024;2022-11-15T07:01:28;2.60;99.90
35043;DHT22;21230;51.170;17.024;2022-11-15T07:03:54;2.60;99.90
35043;DHT22;21230;51.170;17.024;2022-11-15T07:06:20;2.60;99.90
35043;DHT22;21230;51.170;17.024;2022-11-15T07:08:51;2.70;99.90
35043;DHT22;21230;51.170;17.024;2022-11-15T07:11:17;2.80;99.90
35043;DHT22;21230;51.170;17.024;2022-11-15T07:13:42;3.00;99.90
35043;DHT22;21230;51.170;17.024;2022-11-15T07:16:10;3.00;99.90
35043;DHT22;21230;51.170;17.024;2022-11-15T07:18:39;3.10;99.90
35043;DHT22;21230;51.170;17.024;2022-11-15T07:21:06;3.10;99.90
35043;DHT22;21230;51.170;17.024;2022-11-15T07:23:35;3.10;99.90
35043;DHT22;21230;51.170;17.024;2022-11-15T07:26:07;3.00;99.90
35043;DHT22;21230;51.170;17.024;2022-11-15T07:28:34;2.90;99.90
35043;DHT22;21230;51.170;17.024;2022-11-15T07:31:06;3.00;99.90
35043;DHT22;21230;51.170;17.024;2022-11-15T07:33:32;3.10;99.90
35043;DHT22;21230;51.170;17.024;2022-11-15T07:36:05;3.30;99.90
35043;DHT22;21230;51.170;17.024;2022-11-15T07:38:32;3.40;99.90
35043;DHT22;21230;51.170;17.024;2022-11-15T07:40:58;3.50;99.90
35043;DHT22;21230;51.170;17.024;2022-11-15T07:43:33;3.60;99.90
35043;DHT22;21230;51.170;17.024;2022-11-15T07:46:06;3.80;99.90
35043;DHT22;21230;51.170;17.024;2022-11-15T07:48:37;3.90;99.90
35043;DHT22;21230;51.170;17.024;2022-11-15T07:51:19;4.00;99.90
35043;DHT22;21230;51.170;17.024;2022-11-15T07:53:45;4.30;99.90
35043;DHT22;21230;51.170;17.024;2022-11-15T07:56:11;4.30;99.90
35043;DHT22;21230;51.170;17.024;2022-11-15T07:58:38;4.40;99.90
35043;DHT22;21230;51.170;17.024;2022-11-15T08:01:04;4.50;99.90
35043;DHT22;21230;51.170;17.024;2022-11-15T08:03:31;4.70;99.90
35043;DHT22;21230;51.170;17.024;2022-11-15T08:05:57;4.70;99.90
35043;DHT22;21230;51.170;17.024;2022-11-15T08:08:23;4.70;99.90
35043;DHT22;21230;51.170;17.024;2022-11-15T08:10:50;4.80;99.90
35043;DHT22;21230;51.170;17.024;2022-11-15T08:13:16;4.80;99.90
35043;DHT22;21230;51.170;17.024;2022-11-15T08:15:41;4.90;99.90
35043;DHT22;21230;51.170;17.024;2022-11-15T08:18:12;5.00;99.90
35043;DHT22;21230;51.170;17.024;2022-11-15T08:20:38;5.10;99.90
35043;DHT22;21230;51.170;17.024;2022-11-15T08:23:09;5.30;99.90
35043;DHT22;21230;51.170;17.024;2022-11-15T08:25:35;5.50;99.90
35043;DHT22;21230;51.170;17.024;2022-11-15T08:28:03;5.60;99.90
35043;DHT22;21230;51.170;17.024;2022-11-15T08:30:30;5.70;99.90
35043;DHT22;21230;51.170;17.024;2022-11-15T08:32:59;5.70;99.90
35043;DHT22;21230;51.170;17.024;2022-11-15T08:35:24;5.90;99.90
35043;DHT22;21230;51.170;17.024;2022-11-15T08:37:51;6.00;99.90
35043;DHT22;21230;51.170;17.024;2022-11-15T08:40:17;6.10;99.90
35043;DHT22;21230;51.170;17.024;2022-11-15T08:42:45;6.20;99.90
35043;DHT22;21230;51.170;17.024;2022-11-15T08:45:11;6.40;99.90
35043;DHT22;21230;51.170;17.024;2022-11-15T08:47:36;6.40;99.90
35043;DHT22;21230;51.170;17.024;2022-11-15T08:50:02;6.50;99.90
35043;DHT22;21230;51.170;17.024;2022-11-15T08:52:28;6.60;99.90
35043;DHT22;21230;51.170;17.024;2022-11-15T08:54:53;6.60;99.90
35043;DHT22;21230;51.170;17.024;2022-11-15T08:57:19;6.50;99.90
35043;DHT22;21230;51.170;17.024;2022-11-15T08:59:44;6.40;99.90
35043;DHT22;21230;51.170;17.024;2022-11-15T09:02:11;6.50;99.90
35043;DHT22;21230;51.170;17.024;2022-11-15T09:04:44;6.60;99.90
35043;DHT22;21230;51.170;17.024;2022-11-15T09:07:10;6.60;99.90
35043;DHT22;21230;51.170;17.024;2022-11-15T09:09:36;6.60;99.90
35043;DHT22;21230;51.170;17.024;2022-11-15T09:12:02;6.60;99.90
35043;DHT22;21230;51.170;17.024;2022-11-15T09:14:28;6.60;99.90
35043;DHT22;21230;51.170;17.024;2022-11-15T09:16:54;6.70;99.90
35043;DHT22;21230;51.170;17.024;2022-11-15T09:19:19;6.80;99.90
35043;DHT22;21230;51.170;17.024;2022-11-15T09:21:45;6.90;99.90
35043;DHT22;21230;51.170;17.024;2022-11-15T09:24:10;7.00;99.90
35043;DHT22;21230;51.170;17.024;2022-11-15T09:26:36;7.20;99.90
35043;DHT22;21230;51.170;17.024;2022-11-15T09:29:02;7.30;99.90
35043;DHT22;21230;51.170;17.024;2022-11-15T09:31:28;7.30;99.90
35043;DHT22;21230;51.170;17.024;2022-11-15T09:33:54;7.40;99.90
35043;DHT22;21230;51.170;17.024;2022-11-15T09:36:21;7.50;99.90
35043;DHT22;21230;51.170;17.024;2022-11-15T09:38:46;7.60;99.90
35043;DHT22;21230;51.170;17.024;2022-11-15T09:49:16;7.80;99.90
35043;DHT22;21230;51.170;17.024;2022-11-15T09:51:43;8.00;99.90
35043;DHT22;21230;51.170;17.024;2022-11-15T09:54:21;8.20;99.90
35043;DHT22;21230;51.170;17.024;2022-11-15T09:56:51;8.30;99.90
35043;DHT22;21230;51.170;17.024;2022-11-15T10:13:51;8.80;99.90
35043;DHT22;21230;51.170;17.024;2022-11-15T10:16:28;8.90;99.90
35043;DHT22;21230;51.170;17.024;2022-11-15T10:21:34;9.30;99.90
35043;DHT22;21230;51.170;17.024;2022-11-15T10:24:12;9.30;99.90
35043;DHT22;21230;51.170;17.024;2022-11-15T10:26:45;9.30;99.90
35043;DHT22;21230;51.170;17.024;2022-11-15T10:29:26;9.30;99.90
35043;DHT22;21230;51.170;17.024;2022-11-15T10:31:55;9.50;99.90
35043;DHT22;21230;51.170;17.024;2022-11-15T10:37:31;9.80;99.90
35043;DHT22;21230;51.170;17.024;2022-11-15T10:42:36;10.00;99.90
35043;DHT22;21230;51.170;17.024;2022-11-15T10:45:12;10.10;99.90
35043;DHT22;21230;51.170;17.024;2022-11-15T10:47:49;10.20;99.90
35043;DHT22;21230;51.170;17.024;2022-11-15T10:50:30;10.30;99.90
35043;DHT22;21230;51.170;17.024;2022-11-15T10:52:58;10.50;99.90
35043;DHT22;21230;51.170;17.024;2022-11-15T10:55:41;10.60;99.90
35043;DHT22;21230;51.170;17.024;2022-11-15T10:58:21;10.80;99.90
35043;DHT22;21230;51.170;17.024;2022-11-15T11:00:52;11.00;99.90
35043;DHT22;21230;51.170;17.024;2022-11-15T11:06:09;11.20;99.90
35043;DHT22;21230;51.170;17.024;2022-11-15T11:08:37;11.20;99.90
35043;DHT22;21230;51.170;17.024;2022-11-15T11:11:03;11.30;99.90
35043;DHT22;21230;51.170;17.024;2022-11-15T11:13:35;11.30;99.90
35043;DHT22;21230;51.170;17.024;2022-11-15T11:21:09;11.40;99.90
35043;DHT22;21230;51.170;17.024;2022-11-15T11:36:56;12.00;99.90
35043;DHT22;21230;51.170;17.024;2022-11-15T11:39:25;12.10;99.90
35043;DHT22;21230;51.170;17.024;2022-11-15T11:45:05;12.40;99.90
35043;DHT22;21230;51.170;17.024;2022-11-15T11:47:24;12.30;99.90
35043;DHT22;21230;51.170;17.024;2022-11-15T11:49:54;12.30;99.90
35043;DHT22;21230;51.170;17.024;2022-11-15T11:52:35;12.30;99.90
35043;DHT22;21230;51.170;17.024;2022-11-15T11:55:10;12.30;99.90
35043;DHT22;21230;51.170;17.024;2022-11-15T11:57:40;12.40;99.90
35043;DHT22;21230;51.170;17.024;2022-11-15T12:00:15;12.40;99.90
35043;DHT22;21230;51.170;17.024;2022-11-15T12:17:25;12.70;99.90
35043;DHT22;21230;51.170;17.024;2022-11-15T12:20:20;12.90;99.90
35043;DHT22;21230;51.170;17.024;2022-11-15T12:26:05;13.00;99.90
35043;DHT22;21230;51.170;17.024;2022-11-15T12:31:10;13.10;99.90
35043;DHT22;21230;51.170;17.024;2022-11-15T12:33:40;13.10;99.90
35043;DHT22;21230;51.170;17.024;2022-11-15T12:36:35;13.10;99.90
35043;DHT22;21230;51.170;17.024;2022-11-15T12:39:11;13.10;99.90
35043;DHT22;21230;51.170;17.024;2022-11-15T12:47:26;12.90;99.90
35043;DHT22;21230;51.170;17.024;2022-11-15T12:49:52;12.90;99.90
35043;DHT22;21230;51.170;17.024;2022-11-15T12:52:24;13.00;99.90
35043;DHT22;21230;51.170;17.024;2022-11-15T12:54:58;12.90;99.90
35043;DHT22;21230;51.170;17.024;2022-11-15T12:57:31;12.90;99.90
35043;DHT22;21230;51.170;17.024;2022-11-15T13:04:55;12.80;99.90
35043;DHT22;21230;51.170;17.024;2022-11-15T13:17:54;12.80;99.90
35043;DHT22;21230;51.170;17.024;2022-11-15T13:20:21;13.00;99.90
35043;DHT22;21230;51.170;17.024;2022-11-15T13:30:36;13.10;99.90
35043;DHT22;21230;51.170;17.024;2022-11-15T13:33:16;13.10;99.90
35043;DHT22;21230;51.170;17.024;2022-11-15T13:35:44;13.00;99.90
35043;DHT22;21230;51.170;17.024;2022-11-15T13:38:17;13.10;99.90
35043;DHT22;21230;51.170;17.024;2022-11-15T13:40:43;13.10;99.90
35043;DHT22;21230;51.170;17.024;2022-11-15T13:48:31;13.10;99.90
35043;DHT22;21230;51.170;17.024;2022-11-15T13:51:00;13.10;99.90
35043;DHT22;21230;51.170;17.024;2022-11-15T13:53:27;13.20;99.90
35043;DHT22;21230;51.170;17.024;2022-11-15T13:55:53;13.20;99.90
35043;DHT22;21230;51.170;17.024;2022-11-15T13:58:20;13.20;99.90
35043;DHT22;21230;51.170;17.024;2022-11-15T14:00:46;13.10;99.90
35043;DHT22;21230;51.170;17.024;2022-11-15T14:03:20;13.10;99.90
35043;DHT22;21230;51.170;17.024;2022-11-15T14:06:00;13.00;99.90
35043;DHT22;21230;51.170;17.024;2022-11-15T14:08:29;13.00;99.90
35043;DHT22;21230;51.170;17.024;2022-11-15T14:11:08;13.00;99.90
35043;DHT22;21230;51.170;17.024;2022-11-15T14:13:34;12.90;99.90
35043;DHT22;21230;51.170;17.024;2022-11-15T14:16:16;12.90;99.90
35043;DHT22;21230;51.170;17.024;2022-11-15T14:18:45;12.80;99.90
35043;DHT22;21230;51.170;17.024;2022-11-15T14:21:11;12.70;99.90
35043;DHT22;21230;51.170;17.024;2022-11-15T14:23:37;12.70;99.90
35043;DHT22;21230;51.170;17.024;2022-11-15T14:26:03;12.60;99.90
35043;DHT22;21230;51.170;17.024;2022-11-15T14:28:30;12.60;99.90
35043;DHT22;21230;51.170;17.024;2022-11-15T14:30:58;12.60;99.90
35043;DHT22;21230;51.170;17.024;2022-11-15T14:33:27;12.50;99.90
35043;DHT22;21230;51.170;17.024;2022-11-15T14:35:57;12.40;99.90
35043;DHT22;21230;51.170;17.024;2022-11-15T14:38:42;12.40;99.90
35043;DHT22;21230;51.170;17.024;2022-11-15T14:41:25;12.40;99.90
35043;DHT22;21230;51.170;17.024;2022-11-15T14:43:52;12.20;99.90
35043;DHT22;21230;51.170;17.024;2022-11-15T14:46:17;12.10;99.90
35043;DHT22;21230;51.170;17.024;2022-11-15T14:48:43;12.00;99.90
35043;DHT22;21230;51.170;17.024;2022-11-15T14:51:11;11.80;99.90
35043;DHT22;21230;51.170;17.024;2022-11-15T14:53:36;11.70;99.90
35043;DHT22;21230;51.170;17.024;2022-11-15T14:56:02;11.60;99.90
35043;DHT22;21230;51.170;17.024;2022-11-15T14:58:30;11.50;99.90
35043;DHT22;21230;51.170;17.024;2022-11-15T15:00:56;11.40;99.90
35043;DHT22;21230;51.170;17.024;2022-11-15T15:03:22;11.30;99.90
35043;DHT22;21230;51.170;17.024;2022-11-15T15:05:47;11.20;99.90
35043;DHT22;21230;51.170;17.024;2022-11-15T15:08:13;11.10;99.90
35043;DHT22;21230;51.170;17.024;2022-11-15T15:10:43;10.90;99.90
35043;DHT22;21230;51.170;17.024;2022-11-15T15:13:19;10.70;99.90
35043;DHT22;21230;51.170;17.024;2022-11-15T15:15:54;10.60;99.90
35043;DHT22;21230;51.170;17.024;2022-11-15T15:18:20;10.50;99.90
35043;DHT22;21230;51.170;17.024;2022-11-15T15:20:47;10.40;99.90
35043;DHT22;21230;51.170;17.024;2022-11-15T15:23:26;10.30;99.90
35043;DHT22;21230;51.170;17.024;2022-11-15T15:26:00;10.30;99.90
35043;DHT22;21230;51.170;17.024;2022-11-15T15:28:26;10.30;99.90
35043;DHT22;21230;51.170;17.024;2022-11-15T15:30:53;10.20;99.90
35043;DHT22;21230;51.170;17.024;2022-11-15T15:33:18;10.20;99.90
35043;DHT22;21230;51.170;17.024;2022-11-15T15:35:44;10.10;99.90
35043;DHT22;21230;51.170;17.024;2022-11-15T15:38:10;9.90;99.90
35043;DHT22;21230;51.170;17.024;2022-11-15T15:40:36;9.70;99.90
35043;DHT22;21230;51.170;17.024;2022-11-15T15:43:02;9.70;99.90
35043;DHT22;21230;51.170;17.024;2022-11-15T15:45:27;9.70;99.90
35043;DHT22;21230;51.170;17.024;2022-11-15T15:47:56;9.70;99.90
35043;DHT22;21230;51.170;17.024;2022-11-15T15:50:28;9.90;99.90
35043;DHT22;21230;51.170;17.024;2022-11-15T15:52:57;10.00;99.90
35043;DHT22;21230;51.170;17.024;2022-11-15T15:55:29;10.00;99.90
35043;DHT22;21230;51.170;17.024;2022-11-15T15:57:56;10.00;99.90
35043;DHT22;21230;51.170;17.024;2022-11-15T16:00:25;10.00;99.90
35043;DHT22;21230;51.170;17.024;2022-11-15T16:02:51;9.90;99.90
35043;DHT22;21230;51.170;17.024;2022-11-15T16:05:17;9.90;99.90
35043;DHT22;21230;51.170;17.024;2022-11-15T16:07:43;9.80;99.90
35043;DHT22;21230;51.170;17.024;2022-11-15T16:10:16;9.70;99.90
35043;DHT22;21230;51.170;17.024;2022-11-15T16:12:42;9.70;99.90
35043;DHT22;21230;51.170;17.024;2022-11-15T16:15:09;9.60;99.90
35043;DHT22;21230;51.170;17.024;2022-11-15T16:17:37;9.50;99.90
35043;DHT22;21230;51.170;17.024;2022-11-15T16:20:04;9.30;99.90
35043;DHT22;21230;51.170;17.024;2022-11-15T16:22:30;9.20;99.90
35043;DHT22;21230;51.170;17.024;2022-11-15T16:24:56;9.10;99.90
35043;DHT22;21230;51.170;17.024;2022-11-15T16:27:23;9.10;99.90
35043;DHT22;21230;51.170;17.024;2022-11-15T16:29:53;9.10;99.90
35043;DHT22;21230;51.170;17.024;2022-11-15T16:34:44;9.10;99.90
35043;DHT22;21230;51.170;17.024;2022-11-15T16:39:58;9.00;99.90
35043;DHT22;21230;51.170;17.024;2022-11-15T16:42:24;8.90;99.90
35043;DHT22;21230;51.170;17.024;2022-11-15T16:44:50;8.80;99.90
35043;DHT22;21230;51.170;17.024;2022-11-15T16:47:18;8.70;99.90
35043;DHT22;21230;51.170;17.024;2022-11-15T16:49:44;8.60;99.90
35043;DHT22;21230;51.170;17.024;2022-11-15T16:52:10;8.60;99.90
35043;DHT22;21230;51.170;17.024;2022-11-15T16:54:35;8.60;99.90
35043;DHT22;21230;51.170;17.024;2022-11-15T16:57:01;8.60;99.90
35043;DHT22;21230;51.170;17.024;2022-11-15T16:59:27;8.50;99.90
35043;DHT22;21230;51.170;17.024;2022-11-15T17:01:54;8.50;99.90
35043;DHT22;21230;51.170;17.024;2022-11-15T17:04:22;8.40;99.90
35043;DHT22;21230;51.170;17.024;2022-11-15T17:06:48;8.20;99.90
35043;DHT22;21230;51.170;17.024;2022-11-15T17:09:20;8.10;99.90
35043;DHT22;21230;51.170;17.024;2022-11-15T17:11:50;8.10;99.90
35043;DHT22;21230;51.170;17.024;2022-11-15T17:14:18;8.10;99.90
35043;DHT22;21230;51.170;17.024;2022-11-15T17:16:44;8.20;99.90
35043;DHT22;21230;51.170;17.024;2022-11-15T17:19:13;8.10;99.90
35043;DHT22;21230;51.170;17.024;2022-11-15T17:21:39;7.90;99.90
35043;DHT22;21230;51.170;17.024;2022-11-15T17:24:05;7.80;99.90
35043;DHT22;21230;51.170;17.024;2022-11-15T17:26:33;7.70;99.90
35043;DHT22;21230;51.170;17.024;2022-11-15T17:28:59;7.70;99.90
35043;DHT22;21230;51.170;17.024;2022-11-15T17:31:26;7.70;99.90
35043;DHT22;21230;51.170;17.024;2022-11-15T17:33:55;7.80;99.90
35043;DHT22;21230;51.170;17.024;2022-11-15T17:36:21;7.60;99.90
35043;DHT22;21230;51.170;17.024;2022-11-15T17:38:47;7.50;99.90
35043;DHT22;21230;51.170;17.024;2022-11-15T17:41:17;7.50;99.90
35043;DHT22;21230;51.170;17.024;2022-11-15T17:43:43;7.50;99.90
35043;DHT22;21230;51.170;17.024;2022-11-15T17:46:15;7.50;99.90
35043;DHT22;21230;51.170;17.024;2022-11-15T17:48:42;7.50;99.90
35043;DHT22;21230;51.170;17.024;2022-11-15T17:51:10;7.50;99.90
35043;DHT22;21230;51.170;17.024;2022-11-15T17:53:36;7.70;99.90
35043;DHT22;21230;51.170;17.024;2022-11-15T17:56:03;7.70;99.90
35043;DHT22;21230;51.170;17.024;2022-11-15T17:58:29;7.70;99.90
35043;DHT22;21230;51.170;17.024;2022-11-15T18:00:57;7.70;99.90
35043;DHT22;21230;51.170;17.024;2022-11-15T18:03:28;7.70;99.90
35043;DHT22;21230;51.170;17.024;2022-11-15T18:05:54;7.70;99.90
35043;DHT22;21230;51.170;17.024;2022-11-15T18:08:20;7.80;99.90
35043;DHT22;21230;51.170;17.024;2022-11-15T18:11:06;7.70;99.90
35043;DHT22;21230;51.170;17.024;2022-11-15T18:13:35;7.50;99.90
35043;DHT22;21230;51.170;17.024;2022-11-15T18:16:06;7.30;99.90